Time;durP1;ratioP1;P1;durP2;ratioP2;P2;SDS_P1;SDS_P2;PMS_P1;PMS_P2;Temp;Humidity;BMP_temperature;BMP_pressure;BME280_temperature;BME280_humidity;BME280_pressure;Samples;Min_cycle;Max_cycle;Signal;HPM_P1;HPM_P2
2021/08/22 00:01:30;;;;;;;20.17;16.98;;;18.90;99.90;;;;;;5094920;28;20557;-76
2021/08/22 00:03:56;;;;;;;20.08;17.38;;;18.90;99.90;;;;;;5094460;28;20032;-76
2021/08/22 00:06:21;;;;;;;22.92;17.75;;;18.90;99.90;;;;;;5095010;28;20065;-76
2021/08/22 00:08:48;;;;;;;22.05;18.52;;;18.90;99.90;;;;;;5094958;28;20036;-76
2021/08/22 00:11:15;;;;;;;22.50;18.77;;;18.90;99.90;;;;;;5094844;28;20050;-76
2021/08/22 00:13:40;;;;;;;21.52;19.30;;;18.90;99.90;;;;;;5094061;28;20113;-76
2021/08/22 00:16:06;;;;;;;25.55;18.48;;;18.90;99.90;;;;;;5094868;28;20460;-77
2021/08/22 00:18:32;;;;;;;23.02;19.17;;;18.80;99.90;;;;;;5094300;28;20047;-76
2021/08/22 00:21:01;;;;;;;24.90;18.90;;;18.80;99.90;;;;;;5094502;28;20028;-75
2021/08/22 00:23:28;;;;;;;26.42;20.70;;;18.90;99.90;;;;;;5094533;28;20040;-77
2021/08/22 00:25:54;;;;;;;27.10;20.58;;;18.80;99.90;;;;;;5094841;28;20064;-76
2021/08/22 00:28:20;;;;;;;22.23;19.65;;;18.70;99.90;;;;;;5094589;28;20137;-76
2021/08/22 00:30:45;;;;;;;24.02;19.48;;;18.70;99.90;;;;;;5094108;28;20032;-76
2021/08/22 00:33:11;;;;;;;23.63;18.98;;;18.80;99.90;;;;;;5094689;28;20438;-76
2021/08/22 00:35:37;;;;;;;25.55;19.55;;;18.70;99.90;;;;;;5094663;28;20071;-76
2021/08/22 00:38:02;;;;;;;26.88;19.58;;;18.70;99.90;;;;;;5094774;28;20495;-78
2021/08/22 00:40:31;;;;;;;28.33;20.65;;;18.70;99.90;;;;;;5094392;28;20040;-76
2021/08/22 00:42:56;;;;;;;24.25;19.73;;;18.70;99.90;;;;;;5094633;28;20503;-76
2021/08/22 00:45:22;;;;;;;25.77;19.20;;;18.80;99.90;;;;;;5094216;28;20036;-76
2021/08/22 00:47:48;;;;;;;22.25;19.38;;;18.70;99.90;;;;;;5094326;28;20486;-76
2021/08/22 00:50:21;;;;;;;27.13;21.08;;;18.70;99.90;;;;;;5093814;28;20040;-75
2021/08/22 00:52:50;;;;;;;25.38;20.48;;;18.70;99.90;;;;;;5094414;28;20043;-76
2021/08/22 00:55:17;;;;;;;26.75;20.40;;;18.60;99.90;;;;;;5094019;28;20044;-76
2021/08/22 00:57:43;;;;;;;25.00;20.40;;;18.60;99.90;;;;;;5093928;28;20546;-76
2021/08/22 01:00:11;;;;;;;26.98;21.10;;;18.60;99.90;;;;;;5093654;28;20040;-77
2021/08/22 01:02:43;;;;;;;25.25;20.50;;;18.60;99.90;;;;;;5093690;28;20058;-76
2021/08/22 01:05:49;;;;;;;24.70;20.75;;;18.60;99.90;;;;;;5093793;28;20036;-76
2021/08/22 01:08:29;;;;;;;33.47;22.17;;;18.70;99.90;;;;;;5092560;28;20044;-76
2021/08/22 01:11:08;;;;;;;24.48;20.52;;;18.60;99.90;;;;;;5093754;28;20059;-76
2021/08/22 01:13:39;;;;;;;27.25;21.80;;;18.60;99.90;;;;;;5093522;28;20043;-76
2021/08/22 01:16:07;;;;;;;23.88;20.20;;;18.60;99.90;;;;;;5093653;28;20118;-76
2021/08/22 01:18:35;;;;;;;25.83;22.45;;;18.50;99.90;;;;;;5093547;28;20039;-77
2021/08/22 01:21:12;;;;;;;22.85;20.20;;;18.50;99.90;;;;;;5093443;28;20036;-76
2021/08/22 01:23:54;;;;;;;25.83;21.00;;;18.40;99.90;;;;;;5093533;28;20484;-77
2021/08/22 01:26:35;;;;;;;27.73;20.55;;;18.40;99.90;;;;;;5093475;28;20047;-76
2021/08/22 01:29:02;;;;;;;23.20;20.52;;;18.40;99.90;;;;;;5093510;28;20132;-77
2021/08/22 01:31:32;;;;;;;27.42;21.67;;;18.40;99.90;;;;;;5093466;28;20051;-76
2021/08/22 01:34:00;;;;;;;24.35;20.20;;;18.40;99.90;;;;;;5093528;28;20043;-76
2021/08/22 01:36:27;;;;;;;25.08;20.65;;;18.40;99.90;;;;;;5093405;28;20040;-76
2021/08/22 01:38:54;;;;;;;26.80;20.80;;;18.40;99.90;;;;;;5093025;28;20047;-77
2021/08/22 01:41:23;;;;;;;26.92;20.90;;;18.40;99.90;;;;;;5093382;28;20036;-76
2021/08/22 01:43:51;;;;;;;23.10;20.02;;;18.30;99.90;;;;;;5093468;28;20048;-76
2021/08/22 01:46:27;;;;;;;25.85;20.98;;;18.30;99.90;;;;;;5093364;28;20040;-77
2021/08/22 01:48:54;;;;;;;26.38;21.48;;;18.30;99.90;;;;;;5093521;28;20107;-76
2021/08/22 01:51:20;;;;;;;30.13;22.38;;;18.30;99.90;;;;;;5093255;28;20040;-76
2021/08/22 01:53:46;;;;;;;26.27;21.08;;;18.40;99.90;;;;;;5093897;28;20032;-76
2021/08/22 01:56:12;;;;;;;26.50;21.00;;;18.30;99.90;;;;;;5093303;28;20115;-76
2021/08/22 01:58:38;;;;;;;24.58;21.17;;;18.40;99.90;;;;;;5092743;28;20111;-77
2021/08/22 02:01:04;;;;;;;25.70;20.02;;;18.30;99.90;;;;;;5093152;28;20040;-77
2021/08/22 02:03:45;;;;;;;25.10;20.45;;;18.30;99.90;;;;;;5093445;28;20039;-76
2021/08/22 02:06:18;;;;;;;24.92;21.00;;;18.30;99.90;;;;;;5093157;28;20036;-76
2021/08/22 02:08:48;;;;;;;24.38;21.25;;;18.30;99.90;;;;;;5092784;28;20071;-76
2021/08/22 02:11:19;;;;;;;26.27;20.70;;;18.30;99.90;;;;;;5092906;28;20124;-76
2021/08/22 02:13:48;;;;;;;24.05;20.85;;;18.30;99.90;;;;;;5093117;28;20403;-77
2021/08/22 02:16:20;;;;;;;23.90;19.83;;;18.30;99.90;;;;;;5093049;28;20043;-76
2021/08/22 02:18:46;;;;;;;25.45;20.15;;;18.30;99.90;;;;;;5092893;28;20058;-76
2021/08/22 02:21:12;;;;;;;26.50;20.38;;;18.20;99.90;;;;;;5092719;28;20579;-76
2021/08/22 02:23:38;;;;;;;23.15;18.98;;;18.20;99.90;;;;;;5092928;28;20131;-77
2021/08/22 02:26:04;;;;;;;23.80;19.77;;;18.20;99.90;;;;;;5092792;28;20051;-76
2021/08/22 02:28:31;;;;;;;22.73;19.27;;;18.20;99.90;;;;;;5095756;28;20036;-77
2021/08/22 02:30:57;;;;;;;21.83;18.48;;;18.30;99.90;;;;;;5095524;28;20122;-77
2021/08/22 02:33:23;;;;;;;26.10;22.35;;;18.20;99.90;;;;;;5096684;28;20115;-77
2021/08/22 02:35:49;;;;;;;27.13;24.13;;;18.20;99.90;;;;;;5096785;28;20043;-76
2021/08/22 02:38:14;;;;;;;28.30;23.02;;;18.30;99.90;;;;;;5097028;28;20473;-76
2021/08/22 02:40:40;;;;;;;28.20;23.83;;;18.30;99.90;;;;;;5096552;28;20036;-77
2021/08/22 02:43:06;;;;;;;27.27;23.95;;;18.30;99.90;;;;;;5097008;28;20040;-77
2021/08/22 02:45:32;;;;;;;29.13;25.15;;;18.30;99.90;;;;;;5096841;28;20039;-76
2021/08/22 02:48:01;;;;;;;25.40;22.63;;;18.30;99.90;;;;;;5096337;28;20085;-77
2021/08/22 02:50:30;;;;;;;29.58;22.13;;;18.30;99.90;;;;;;5096102;28;20036;-77
2021/08/22 02:52:56;;;;;;;27.15;22.85;;;18.30;99.90;;;;;;5096375;28;20432;-76
2021/08/22 02:55:22;;;;;;;28.02;22.92;;;18.30;99.90;;;;;;5096617;28;20042;-77
2021/08/22 02:57:48;;;;;;;25.70;22.63;;;18.30;99.90;;;;;;5096485;28;20040;-76
2021/08/22 03:00:14;;;;;;;28.15;21.75;;;18.20;99.90;;;;;;5095905;28;20480;-76
2021/08/22 03:02:40;;;;;;;26.45;21.85;;;18.30;99.90;;;;;;5095891;28;20135;-76
2021/08/22 03:05:06;;;;;;;26.38;22.85;;;18.30;99.90;;;;;;5096266;28;20075;-76
2021/08/22 03:07:31;;;;;;;26.80;22.45;;;18.30;99.90;;;;;;5096292;28;20063;-76
2021/08/22 03:09:57;;;;;;;29.52;23.95;;;18.30;99.90;;;;;;5095829;28;20074;-77
2021/08/22 03:12:23;;;;;;;25.63;22.35;;;18.30;99.90;;;;;;5096035;28;20050;-76
2021/08/22 03:14:49;;;;;;;32.60;25.20;;;18.30;99.90;;;;;;5095777;28;20411;-77
2021/08/22 03:17:14;;;;;;;30.20;24.38;;;18.20;99.90;;;;;;5094879;28;20051;-76
2021/08/22 03:19:40;;;;;;;31.88;26.55;;;18.20;99.90;;;;;;5095391;28;20042;-77
2021/08/22 03:22:06;;;;;;;28.25;25.20;;;18.20;99.90;;;;;;5095578;28;20442;-77
2021/08/22 03:24:31;;;;;;;30.55;24.13;;;18.20;99.90;;;;;;5095990;28;20044;-77
2021/08/22 03:26:57;;;;;;;26.75;23.73;;;18.20;99.90;;;;;;5095863;28;20036;-77
2021/08/22 03:29:23;;;;;;;25.75;22.90;;;18.20;99.90;;;;;;5095630;28;20068;-77
2021/08/22 03:31:48;;;;;;;30.17;24.73;;;18.20;99.90;;;;;;5095643;28;20040;-77
2021/08/22 03:34:14;;;;;;;27.00;23.98;;;18.20;99.90;;;;;;5095829;28;20039;-77
2021/08/22 03:36:40;;;;;;;30.77;26.92;;;18.20;99.90;;;;;;5095567;28;20040;-77
2021/08/22 03:39:06;;;;;;;34.03;27.13;;;18.20;99.90;;;;;;5093871;28;20036;-77
2021/08/22 03:41:33;;;;;;;31.55;26.33;;;18.20;99.90;;;;;;5095499;28;20067;-77
2021/08/22 03:43:59;;;;;;;27.17;23.88;;;18.10;99.90;;;;;;5095604;28;20044;-77
2021/08/22 03:46:25;;;;;;;31.65;24.95;;;18.10;99.90;;;;;;5095322;28;20039;-77
2021/08/22 03:48:51;;;;;;;30.70;26.23;;;18.10;99.90;;;;;;5094863;28;20068;-78
2021/08/22 03:51:16;;;;;;;32.72;26.83;;;18.10;99.90;;;;;;5095211;28;20093;-77
2021/08/22 03:53:42;;;;;;;29.17;25.67;;;18.00;99.90;;;;;;5095095;28;20040;-77
2021/08/22 03:56:08;;;;;;;32.58;26.30;;;18.00;99.90;;;;;;5095413;28;20047;-77
2021/08/22 03:58:34;;;;;;;31.65;26.17;;;18.00;99.90;;;;;;5094877;28;20040;-77
2021/08/22 04:01:00;;;;;;;33.33;27.58;;;18.00;99.90;;;;;;5094983;28;20038;-77
2021/08/22 04:03:27;;;;;;;31.92;27.58;;;18.00;99.90;;;;;;5095126;28;20534;-77
2021/08/22 04:05:53;;;;;;;37.65;29.27;;;18.00;99.90;;;;;;5095142;28;20047;-76
2021/08/22 04:08:24;;;;;;;30.85;27.55;;;18.00;99.90;;;;;;5094990;28;20077;-77
2021/08/22 04:10:51;;;;;;;36.33;28.75;;;18.00;99.90;;;;;;5094803;28;20048;-77
2021/08/22 04:13:16;;;;;;;34.63;27.95;;;18.00;99.90;;;;;;5095063;28;20048;-76
2021/08/22 04:15:43;;;;;;;37.00;29.80;;;17.90;99.90;;;;;;5094605;28;20036;-77
2021/08/22 04:18:08;;;;;;;40.22;32.10;;;17.90;99.90;;;;;;5094588;28;20373;-76
2021/08/22 04:20:34;;;;;;;37.67;30.92;;;17.80;99.90;;;;;;5094354;28;20077;-76
2021/08/22 04:23:01;;;;;;;38.28;31.75;;;17.90;99.90;;;;;;5094798;28;20040;-76
2021/08/22 04:25:26;;;;;;;39.08;31.33;;;17.80;99.90;;;;;;5094631;28;20039;-77
2021/08/22 04:27:52;;;;;;;44.03;34.60;;;17.90;99.90;;;;;;5094724;28;20381;-77
2021/08/22 04:30:18;;;;;;;38.38;31.80;;;17.80;99.90;;;;;;5094120;28;20036;-77
2021/08/22 04:32:43;;;;;;;37.33;30.55;;;17.80;99.90;;;;;;5094343;28;20063;-77
2021/08/22 04:35:09;;;;;;;38.15;31.75;;;17.80;99.90;;;;;;5094370;28;20438;-77
2021/08/22 04:37:36;;;;;;;41.75;33.33;;;17.80;99.90;;;;;;5094460;28;20119;-77
2021/08/22 04:40:02;;;;;;;36.75;32.28;;;17.80;99.90;;;;;;5093940;28;20040;-77
2021/08/22 04:42:27;;;;;;;41.33;34.70;;;17.90;99.90;;;;;;5094783;28;20044;-77
2021/08/22 04:44:53;;;;;;;40.20;33.17;;;17.70;99.90;;;;;;5094118;28;20064;-76
2021/08/22 04:47:19;;;;;;;40.15;33.92;;;17.80;99.90;;;;;;5092925;28;20070;-77
2021/08/22 04:49:44;;;;;;;43.35;34.25;;;17.80;99.90;;;;;;5093552;28;20491;-76
2021/08/22 04:52:10;;;;;;;51.60;39.70;;;17.60;99.90;;;;;;5093940;28;20044;-76
2021/08/22 04:54:36;;;;;;;52.85;38.63;;;17.70;99.90;;;;;;5094512;28;20085;-76
2021/08/22 04:57:02;;;;;;;67.30;43.90;;;17.60;99.90;;;;;;5094194;28;20440;-75
2021/08/22 04:59:28;;;;;;;63.35;42.63;;;17.60;99.90;;;;;;5093589;28;20123;-76
2021/08/22 05:01:54;;;;;;;64.03;44.20;;;17.50;99.90;;;;;;5093881;28;20040;-75
2021/08/22 05:04:20;;;;;;;63.13;43.40;;;17.50;99.90;;;;;;5094091;28;20047;-76
2021/08/22 05:06:45;;;;;;;57.20;42.97;;;17.50;99.90;;;;;;5094018;28;20040;-76
2021/08/22 05:09:11;;;;;;;61.88;45.17;;;17.60;99.90;;;;;;5092332;28;20036;-76
2021/08/22 05:11:37;;;;;;;61.00;43.25;;;17.60;99.90;;;;;;5093551;28;20097;-76
2021/08/22 05:14:03;;;;;;;52.58;39.35;;;17.60;99.90;;;;;;5092829;28;20444;-75
2021/08/22 05:16:29;;;;;;;54.55;40.58;;;17.60;99.90;;;;;;5093867;28;20035;-76
2021/08/22 05:18:54;;;;;;;58.78;42.45;;;17.50;99.90;;;;;;5093551;28;20048;-76
2021/08/22 05:21:20;;;;;;;52.55;37.33;;;17.50;99.90;;;;;;5093522;28;20100;-76
2021/08/22 05:23:46;;;;;;;48.45;35.13;;;17.50;99.90;;;;;;5093630;28;20453;-76
2021/08/22 05:26:11;;;;;;;41.80;33.85;;;17.50;99.90;;;;;;5093421;28;20058;-77
2021/08/22 05:28:38;;;;;;;43.22;33.15;;;17.40;99.90;;;;;;5093311;28;20048;-77
2021/08/22 05:31:03;;;;;;;42.22;33.60;;;17.40;99.90;;;;;;5093551;28;20103;-76
2021/08/22 05:33:29;;;;;;;34.97;31.17;;;17.50;99.90;;;;;;5093455;28;20090;-76
2021/08/22 05:35:55;;;;;;;36.05;31.70;;;17.60;99.90;;;;;;5093734;28;20043;-77
2021/08/22 05:38:20;;;;;;;37.08;32.63;;;17.50;99.90;;;;;;5093334;28;20039;-76
2021/08/22 05:40:46;;;;;;;36.50;30.63;;;17.40;99.90;;;;;;5093117;28;20107;-77
2021/08/22 05:43:12;;;;;;;39.13;32.25;;;17.50;99.90;;;;;;5093235;28;20040;-77
2021/08/22 05:45:37;;;;;;;43.92;36.75;;;17.40;99.90;;;;;;5093642;28;20047;-75
2021/08/22 05:48:03;;;;;;;37.25;32.25;;;17.40;99.90;;;;;;5093013;28;20032;-76
2021/08/22 05:50:29;;;;;;;39.42;32.83;;;17.40;99.90;;;;;;5092892;28;20089;-76
2021/08/22 05:52:55;;;;;;;37.92;32.38;;;17.50;99.90;;;;;;5093205;28;20438;-75
2021/08/22 05:55:21;;;;;;;37.85;31.73;;;17.40;99.90;;;;;;5093220;28;20043;-76
2021/08/22 05:57:46;;;;;;;35.63;31.63;;;17.50;99.90;;;;;;5093186;28;20040;-76
2021/08/22 06:00:13;;;;;;;39.20;32.45;;;17.40;99.90;;;;;;5092694;28;20462;-76
2021/08/22 06:02:39;;;;;;;40.55;32.60;;;17.50;99.90;;;;;;5094889;28;20087;-75
2021/08/22 06:05:06;;;;;;;36.70;29.90;;;17.40;99.90;;;;;;5098775;28;20063;-75
2021/08/22 06:07:31;;;;;;;37.28;32.60;;;17.40;99.90;;;;;;5097326;28;20403;-75
2021/08/22 06:09:59;;;;;;;38.75;32.05;;;17.40;99.90;;;;;;5096753;28;20047;-76
2021/08/22 06:12:25;;;;;;;36.60;32.40;;;17.40;99.90;;;;;;5097060;28;20049;-75
2021/08/22 06:14:51;;;;;;;38.67;33.40;;;17.40;99.90;;;;;;5096824;28;20032;-75
2021/08/22 06:17:25;;;;;;;38.40;30.80;;;17.40;99.90;;;;;;5096979;28;20040;-75
2021/08/22 06:19:51;;;;;;;38.05;32.75;;;17.30;99.90;;;;;;5096635;28;20115;-75
2021/08/22 06:22:17;;;;;;;39.95;33.20;;;17.30;99.90;;;;;;5096678;28;20079;-76
2021/08/22 06:24:43;;;;;;;39.30;32.58;;;17.30;99.90;;;;;;5096736;28;20063;-75
2021/08/22 06:27:08;;;;;;;38.75;32.03;;;17.30;99.90;;;;;;5096986;28;20089;-77
2021/08/22 06:29:34;;;;;;;41.65;33.42;;;17.30;99.90;;;;;;5096606;28;20090;-76
2021/08/22 06:32:02;;;;;;;37.70;33.08;;;17.30;99.90;;;;;;5097100;28;20526;-76
2021/08/22 06:34:27;;;;;;;35.30;30.35;;;17.30;99.90;;;;;;5097035;28;20040;-75
2021/08/22 06:36:53;;;;;;;33.35;29.60;;;17.30;99.90;;;;;;5096692;28;20058;-76
2021/08/22 06:39:19;;;;;;;33.97;30.08;;;17.30;99.90;;;;;;5096222;28;20047;-76
2021/08/22 06:41:45;;;;;;;34.78;29.75;;;17.40;99.90;;;;;;5096590;28;20040;-75
2021/08/22 06:44:11;;;;;;;35.15;29.90;;;17.30;99.90;;;;;;5096693;28;20042;-75
2021/08/22 06:46:37;;;;;;;36.08;30.17;;;17.30;99.90;;;;;;5096686;28;20484;-74
2021/08/22 06:49:03;;;;;;;34.60;29.40;;;17.40;99.90;;;;;;5095950;28;20047;-75
2021/08/22 06:51:29;;;;;;;36.17;30.73;;;17.30;99.90;;;;;;5096412;28;20091;-77
2021/08/22 06:53:55;;;;;;;34.20;29.85;;;17.30;99.90;;;;;;5095791;28;20040;-74
2021/08/22 06:56:21;;;;;;;35.60;30.60;;;17.30;99.90;;;;;;5096187;28;20468;-75
2021/08/22 06:58:47;;;;;;;32.30;28.52;;;17.30;99.90;;;;;;5095897;28;20040;-76
2021/08/22 07:01:15;;;;;;;34.53;29.98;;;17.30;99.90;;;;;;5095834;28;20040;-75
2021/08/22 07:03:41;;;;;;;31.15;27.13;;;17.30;99.90;;;;;;5096027;28;20480;-76
2021/08/22 07:06:06;;;;;;;30.45;27.25;;;17.30;99.90;;;;;;5096179;28;20051;-76
2021/08/22 07:08:32;;;;;;;34.30;28.08;;;17.30;99.90;;;;;;5095946;28;20040;-75
2021/08/22 07:10:57;;;;;;;28.63;24.52;;;17.30;99.90;;;;;;5095963;28;20468;-76
2021/08/22 07:13:23;;;;;;;25.27;22.35;;;17.30;99.90;;;;;;5095840;28;20076;-76
2021/08/22 07:15:49;;;;;;;29.00;23.77;;;17.30;99.90;;;;;;5096115;28;20499;-74
2021/08/22 07:18:15;;;;;;;27.67;23.00;;;17.30;99.90;;;;;;5095856;28;20036;-75
2021/08/22 07:20:40;;;;;;;25.17;20.85;;;17.30;99.90;;;;;;5095548;28;20036;-76
2021/08/22 07:23:06;;;;;;;26.38;22.52;;;17.40;99.90;;;;;;5095607;28;20036;-75
2021/08/22 07:25:32;;;;;;;22.83;20.27;;;17.40;99.90;;;;;;5095678;28;20047;-76
2021/08/22 07:27:58;;;;;;;22.40;18.92;;;17.30;99.90;;;;;;5095919;28;20032;-76
2021/08/22 07:30:25;;;;;;;21.48;19.20;;;17.30;99.90;;;;;;5095390;28;20488;-75
2021/08/22 07:32:52;;;;;;;24.00;20.67;;;17.30;99.90;;;;;;5095545;28;20047;-77
2021/08/22 07:35:18;;;;;;;31.25;24.60;;;17.30;99.90;;;;;;5094739;28;20043;-75
2021/08/22 07:37:43;;;;;;;23.92;21.33;;;17.30;99.90;;;;;;5095628;28;20356;-75
2021/08/22 07:40:09;;;;;;;25.13;21.15;;;17.40;99.90;;;;;;5095276;28;20040;-75
2021/08/22 07:42:35;;;;;;;23.38;20.10;;;17.30;99.90;;;;;;5095336;28;20040;-75
2021/08/22 07:45:02;;;;;;;23.25;20.75;;;17.30;99.90;;;;;;5095799;28;20040;-75
2021/08/22 07:47:28;;;;;;;23.73;20.35;;;17.40;99.90;;;;;;5093432;28;20038;-74
2021/08/22 07:49:54;;;;;;;25.90;21.38;;;17.40;99.90;;;;;;5094945;28;20036;-75
2021/08/22 07:52:22;;;;;;;22.75;20.23;;;17.30;99.90;;;;;;5095217;28;20074;-77
2021/08/22 07:54:49;;;;;;;26.00;21.17;;;17.40;99.90;;;;;;5093827;28;20093;-82
2021/08/22 07:57:17;;;;;;;22.63;18.83;;;17.40;99.90;;;;;;5094545;28;20028;-75
2021/08/22 07:59:43;;;;;;;21.02;17.35;;;17.40;99.90;;;;;;5094489;28;20081;-76
2021/08/22 08:02:10;;;;;;;21.02;16.52;;;17.30;99.90;;;;;;5094195;28;20071;-76
2021/08/22 08:04:35;;;;;;;17.20;15.40;;;17.40;99.90;;;;;;5092200;28;20484;-75
2021/08/22 08:07:01;;;;;;;21.48;17.98;;;17.30;99.90;;;;;;5094656;28;20081;-74
2021/08/22 08:09:30;;;;;;;15.45;13.85;;;17.30;99.90;;;;;;5094557;28;20059;-73
2021/08/22 08:11:59;;;;;;;16.58;14.70;;;17.30;99.90;;;;;;5094838;28;20043;-74
2021/08/22 08:14:24;;;;;;;15.18;13.55;;;17.30;99.90;;;;;;5094560;28;20074;-75
2021/08/22 08:16:51;;;;;;;16.90;14.00;;;17.30;99.90;;;;;;5094498;28;20452;-75
2021/08/22 08:19:17;;;;;;;15.68;13.63;;;17.30;99.90;;;;;;5094385;28;20434;-75
2021/08/22 08:21:43;;;;;;;13.40;11.82;;;17.30;99.90;;;;;;5094443;28;20040;-75
2021/08/22 08:24:08;;;;;;;16.95;13.52;;;17.30;99.90;;;;;;5094394;28;20040;-74
2021/08/22 08:26:34;;;;;;;14.35;12.40;;;17.30;99.90;;;;;;5094396;28;20511;-74
2021/08/22 08:29:04;;;;;;;14.70;11.60;;;17.30;99.90;;;;;;5093981;28;20028;-75
2021/08/22 08:31:29;;;;;;;17.23;13.55;;;17.40;99.90;;;;;;5094259;28;20126;-74
2021/08/22 08:33:55;;;;;;;16.65;14.70;;;17.40;99.90;;;;;;5094243;28;20040;-75
2021/08/22 08:36:21;;;;;;;14.75;12.20;;;17.40;99.90;;;;;;5094461;28;20039;-75
2021/08/22 08:38:49;;;;;;;18.52;14.25;;;17.50;99.90;;;;;;5093802;28;20100;-75
2021/08/22 08:41:15;;;;;;;14.38;12.50;;;17.40;99.90;;;;;;5094077;28;20403;-75
2021/08/22 08:43:46;;;;;;;16.13;13.10;;;17.50;99.90;;;;;;5094076;28;20031;-75
2021/08/22 08:46:54;;;;;;;16.02;13.80;;;17.50;99.90;;;;;;5094141;28;20089;-75
2021/08/22 08:49:40;;;;;;;23.13;18.17;;;17.50;99.90;;;;;;5093775;28;20130;-75
2021/08/22 08:52:33;;;;;;;22.92;17.83;;;17.50;99.90;;;;;;5094079;28;20039;-75
2021/08/22 08:55:20;;;;;;;18.40;15.35;;;17.50;99.90;;;;;;5093877;28;20038;-75
2021/08/22 08:57:46;;;;;;;23.33;18.27;;;17.50;99.90;;;;;;5093710;28;20049;-75
2021/08/22 09:00:16;;;;;;;22.05;18.23;;;17.40;99.90;;;;;;5093697;28;20040;-75
2021/08/22 09:02:42;;;;;;;28.10;20.58;;;17.60;99.90;;;;;;5093727;28;20483;-76
2021/08/22 09:05:33;;;;;;;28.20;21.70;;;17.70;99.90;;;;;;5094119;28;20039;-74
2021/08/22 09:08:36;;;;;;;34.03;24.70;;;17.80;99.90;;;;;;5093008;28;20525;-75
2021/08/22 09:11:23;;;;;;;31.83;23.88;;;17.90;99.90;;;;;;5092820;28;20047;-76
2021/08/22 09:14:29;;;;;;;40.92;28.85;;;18.00;99.90;;;;;;5091999;28;20040;-77
2021/08/22 09:17:19;;;;;;;43.65;29.55;;;18.10;99.90;;;;;;5092739;28;20054;-76
2021/08/22 09:20:22;;;;;;;42.97;29.88;;;18.30;99.90;;;;;;5073172;28;20047;-75
2021/08/22 09:23:19;;;;;;;41.92;29.05;;;18.50;99.90;;;;;;5073466;28;20041;-75
2021/08/22 09:26:22;;;;;;;37.65;27.27;;;18.70;99.90;;;;;;5073770;28;20037;-74
2021/08/22 09:29:15;;;;;;;39.47;28.45;;;18.80;99.90;;;;;;5073411;28;20040;-74
2021/08/22 09:32:15;;;;;;;35.47;26.58;;;19.00;99.90;;;;;;5073572;28;20036;-74
2021/08/22 09:35:14;;;;;;;36.85;28.08;;;19.10;99.90;;;;;;5073439;28;20041;-75
2021/08/22 09:38:21;;;;;;;31.83;25.02;;;19.10;99.90;;;;;;5073135;28;20028;-75
2021/08/22 09:40:59;;;;;;;31.20;24.92;;;19.00;99.90;;;;;;5073235;28;20457;-74
2021/08/22 09:44:02;;;;;;;28.35;22.20;;;19.10;99.90;;;;;;5073337;28;20113;-74
2021/08/22 09:46:42;;;;;;;28.60;22.58;;;19.10;99.90;;;;;;5073335;28;20040;-74
2021/08/22 09:49:43;;;;;;;27.33;22.73;;;19.00;99.90;;;;;;5072754;28;20039;-76
2021/08/22 09:52:46;;;;;;;29.73;24.80;;;19.00;99.90;;;;;;5072978;28;20041;-76
2021/08/22 09:55:33;;;;;;;30.15;24.20;;;19.00;99.90;;;;;;5073153;28;20040;-75
2021/08/22 09:58:30;;;;;;;27.45;22.15;;;19.00;99.90;;;;;;5073017;28;20041;-74
2021/08/22 10:01:21;;;;;;;26.15;21.25;;;19.00;99.90;;;;;;5072007;28;20052;-74
2021/08/22 10:04:25;;;;;;;25.25;20.73;;;18.90;99.90;;;;;;5073035;28;20044;-74
2021/08/22 10:06:56;;;;;;;27.83;21.55;;;19.00;99.90;;;;;;5073001;28;20504;-74
2021/08/22 10:09:22;;;;;;;23.15;19.55;;;19.00;99.90;;;;;;5072757;28;20044;-74
2021/08/22 10:12:00;;;;;;;22.38;19.45;;;19.10;99.90;;;;;;5072869;28;20040;-73
2021/08/22 10:14:27;;;;;;;18.40;16.35;;;19.20;99.90;;;;;;5072852;28;20048;-74
2021/08/22 10:16:53;;;;;;;13.90;12.45;;;19.30;99.90;;;;;;5072858;28;20047;-75
2021/08/22 10:19:26;;;;;;;16.00;14.10;;;19.30;99.90;;;;;;5072695;28;20048;-75
2021/08/22 10:22:12;;;;;;;11.93;10.73;;;19.40;99.90;;;;;;5072608;28;20403;-75
2021/08/22 10:24:38;;;;;;;10.00;9.02;;;19.40;99.90;;;;;;5072737;28;20401;-76
2021/08/22 10:27:07;;;;;;;9.80;8.80;;;19.40;99.90;;;;;;5072704;28;20047;-76
2021/08/22 10:29:58;;;;;;;7.90;7.20;;;19.40;99.90;;;;;;5072470;28;20121;-75
2021/08/22 10:32:27;;;;;;;8.88;7.95;;;19.40;99.90;;;;;;5069600;28;20189;-75
2021/08/22 10:35:11;;;;;;;5.75;5.22;;;19.40;99.90;;;;;;5072829;28;20058;-74
2021/08/22 10:37:38;;;;;;;5.88;5.28;;;19.40;99.90;;;;;;5072860;28;20417;-75
2021/08/22 10:40:28;;;;;;;6.30;5.70;;;19.40;99.90;;;;;;5072324;28;20059;-75
2021/08/22 10:42:56;;;;;;;6.05;5.55;;;19.60;99.90;;;;;;5072698;28;20040;-75
2021/08/22 10:45:44;;;;;;;6.68;6.05;;;19.60;99.90;;;;;;5072560;28;20032;-74
2021/08/22 10:48:21;;;;;;;6.63;6.03;;;19.70;99.90;;;;;;5073451;28;20040;-76
2021/08/22 10:50:59;;;;;;;6.30;5.30;;;19.70;99.90;;;;;;5075959;28;20037;-75
2021/08/22 10:53:35;;;;;;;5.97;5.40;;;19.80;99.90;;;;;;5078099;28;20119;-77
2021/08/22 10:56:29;;;;;;;6.15;5.55;;;19.90;99.90;;;;;;5076453;28;20071;-76
2021/08/22 10:59:09;;;;;;;5.95;5.43;;;20.10;99.90;;;;;;5075827;28;20062;-75
2021/08/22 11:01:42;;;;;;;7.30;6.13;;;20.20;99.90;;;;;;5076720;28;20039;-80
2021/08/22 11:04:14;;;;;;;7.40;6.80;;;20.40;99.90;;;;;;5078494;28;20048;-75
2021/08/22 11:06:56;;;;;;;7.72;6.93;;;20.50;99.90;;;;;;5075835;28;20045;-76
2021/08/22 11:09:45;;;;;;;8.18;7.45;;;20.60;99.90;;;;;;5075721;28;20040;-75
2021/08/22 11:12:43;;;;;;;8.13;7.32;;;20.50;99.90;;;;;;5075719;28;20170;-75
2021/08/22 11:15:21;;;;;;;7.40;6.47;;;20.50;99.90;;;;;;5063521;28;20405;-76
2021/08/22 11:17:52;;;;;;;7.20;5.93;;;20.60;99.90;;;;;;5076079;28;20063;-76
2021/08/22 11:20:19;;;;;;;6.63;5.53;;;20.70;99.90;;;;;;5075369;28;20036;-76
2021/08/22 11:22:47;;;;;;;6.47;5.88;;;20.70;99.90;;;;;;5075569;28;20067;-76
2021/08/22 11:25:13;;;;;;;5.40;4.90;;;20.60;99.90;;;;;;5075812;28;20187;-76
2021/08/22 11:27:40;;;;;;;6.15;5.55;;;20.40;99.90;;;;;;5075790;28;20032;-75
2021/08/22 11:30:11;;;;;;;5.97;5.13;;;20.50;99.90;;;;;;5075196;28;20037;-74
2021/08/22 11:32:38;;;;;;;5.38;4.85;;;20.50;99.90;;;;;;5075869;28;20048;-74
2021/08/22 11:35:24;;;;;;;6.13;5.03;;;20.40;99.90;;;;;;5074211;28;20124;-74
2021/08/22 11:37:51;;;;;;;6.78;6.18;;;20.30;99.90;;;;;;5075594;28;20117;-74
2021/08/22 11:40:19;;;;;;;8.63;7.35;;;20.20;99.90;;;;;;5075371;28;20048;-74
2021/08/22 11:42:47;;;;;;;8.63;7.60;;;20.00;99.90;;;;;;5075195;28;20495;-75
2021/08/22 11:45:18;;;;;;;8.77;7.93;;;20.00;99.90;;;;;;5075071;28;20036;-74
2021/08/22 11:47:44;;;;;;;8.75;7.80;;;19.80;99.90;;;;;;5074073;28;20036;-74
2021/08/22 11:50:12;;;;;;;9.23;8.43;;;19.70;99.90;;;;;;5075055;28;20096;-74
2021/08/22 11:52:42;;;;;;;9.02;8.13;;;19.70;99.90;;;;;;5075335;28;20059;-74
2021/08/22 11:55:09;;;;;;;9.05;8.18;;;19.60;99.90;;;;;;5075105;28;20036;-74
2021/08/22 11:57:35;;;;;;;11.30;10.20;;;19.60;99.90;;;;;;5075692;28;20037;-74
2021/08/22 12:00:04;;;;;;;9.95;8.95;;;19.60;99.90;;;;;;5073648;28;20040;-75
2021/08/22 12:02:30;;;;;;;9.25;8.45;;;19.60;99.90;;;;;;5074777;28;20400;-75
2021/08/22 12:05:16;;;;;;;8.70;7.80;;;19.60;99.90;;;;;;5075084;28;20051;-73
2021/08/22 12:07:43;;;;;;;7.38;6.63;;;19.70;99.90;;;;;;5075186;28;20404;-75
2021/08/22 12:10:27;;;;;;;7.20;6.22;;;19.60;99.90;;;;;;5074291;28;20032;-75
2021/08/22 12:12:57;;;;;;;7.95;6.75;;;19.70;99.90;;;;;;5074603;28;20499;-75
2021/08/22 12:15:36;;;;;;;8.05;7.35;;;19.70;99.90;;;;;;5073089;28;20101;-76
2021/08/22 12:18:26;;;;;;;9.55;8.63;;;19.80;99.90;;;;;;5074630;28;20043;-75
2021/08/22 12:20:54;;;;;;;9.25;8.35;;;19.70;99.90;;;;;;5074065;28;20045;-75
2021/08/22 12:23:31;;;;;;;11.63;10.45;;;19.80;99.90;;;;;;5074353;28;20040;-76
2021/08/22 12:26:36;;;;;;;11.05;9.95;;;19.80;99.90;;;;;;5074365;28;20051;-75
2021/08/22 12:29:09;;;;;;;12.18;10.88;;;19.70;99.90;;;;;;5073070;28;20049;-75
2021/08/22 12:31:38;;;;;;;12.32;11.07;;;19.70;99.90;;;;;;5080186;28;20464;-76
2021/08/22 12:34:10;;;;;;;13.60;12.23;;;19.60;99.90;;;;;;5094423;28;20111;-76
2021/08/22 12:36:44;;;;;;;14.45;12.95;;;19.60;99.90;;;;;;5094688;28;20032;-75
2021/08/22 12:39:12;;;;;;;14.90;12.52;;;19.60;99.90;;;;;;5094142;28;20040;-74
2021/08/22 12:41:51;;;;;;;14.32;12.82;;;19.60;99.90;;;;;;5094089;28;20118;-75
2021/08/22 12:44:24;;;;;;;15.23;13.73;;;19.60;99.90;;;;;;5094202;28;20036;-76
2021/08/22 12:47:02;;;;;;;14.52;13.07;;;19.70;99.90;;;;;;5094055;28;20071;-75
2021/08/22 12:49:29;;;;;;;16.35;14.65;;;19.80;99.90;;;;;;5093778;28;20114;-76